createdAt,value
2022-10-19T00:00:51.600Z,13.98
2022-10-19T00:03:40.254Z,15.48
2022-10-19T00:06:30.344Z,13.32
2022-10-19T00:09:19.455Z,14.75
2022-10-19T00:12:05.892Z,13.43
2022-10-19T00:14:52.513Z,12.93
2022-10-19T00:17:38.800Z,13.40
2022-10-19T00:20:25.376Z,14.70
2022-10-19T00:23:15.389Z,16.90
2022-10-19T00:26:02.664Z,16.67
2022-10-19T00:28:49.444Z,16.73
2022-10-19T00:31:36.263Z,17.75
2022-10-19T00:34:25.286Z,18.37
2022-10-19T00:37:12.602Z,12.85
2022-10-19T00:39:59.326Z,16.02
2022-10-19T00:42:45.770Z,12.73
2022-10-19T00:45:32.006Z,13.60
2022-10-19T00:48:28.317Z,12.73
2022-10-19T00:51:14.999Z,13.25
2022-10-19T00:54:04.257Z,12.30
2022-10-19T00:56:52.567Z,12.83
2022-10-19T00:59:40.371Z,12.33
2022-10-19T01:02:26.487Z,12.20
2022-10-19T01:05:14.630Z,13.20
2022-10-19T01:08:01.456Z,13.55
2022-10-19T01:10:52.769Z,14.48
2022-10-19T01:14:03.151Z,13.27
2022-10-19T01:17:11.744Z,13.57
2022-10-19T01:20:21.938Z,12.57
2022-10-19T01:23:14.308Z,13.45
2022-10-19T01:26:12.519Z,14.45
2022-10-19T01:29:33.554Z,13.38
2022-10-19T01:32:22.878Z,14.57
2022-10-19T01:35:37.769Z,13.60
2022-10-19T01:38:35.525Z,12.05
2022-10-19T01:41:44.506Z,14.20
2022-10-19T01:44:49.991Z,12.13
2022-10-19T01:47:48.264Z,13.53
2022-10-19T01:50:41.651Z,13.80
2022-10-19T01:53:32.590Z,14.25
2022-10-19T01:56:24.710Z,14.57
2022-10-19T01:59:12.629Z,14.73
2022-10-19T02:01:59.033Z,13.52
2022-10-19T02:04:47.257Z,15.82
2022-10-19T02:07:33.956Z,13.35
2022-10-19T02:10:20.725Z,16.62
2022-10-19T02:13:08.286Z,16.33
2022-10-19T02:15:56.859Z,15.60
2022-10-19T02:18:47.489Z,13.82
2022-10-19T02:21:34.925Z,17.30
2022-10-19T02:24:20.792Z,17.03
2022-10-19T02:27:08.347Z,18.73
2022-10-19T02:29:56.222Z,17.48
2022-10-19T02:32:43.660Z,20.10
2022-10-19T02:35:31.393Z,16.90
2022-10-19T02:38:22.514Z,17.65
2022-10-19T02:41:16.041Z,18.98
2022-10-19T02:44:16.429Z,17.00
2022-10-19T02:47:22.647Z,17.98
2022-10-19T02:50:11.079Z,18.67
2022-10-19T02:53:02.626Z,15.85
2022-10-19T02:55:50.632Z,17.03
2022-10-19T02:58:37.203Z,17.65
2022-10-19T03:01:25.400Z,16.65
2022-10-19T03:04:12.105Z,17.35
2022-10-19T03:06:58.435Z,18.15
2022-10-19T03:09:45.283Z,19.27
2022-10-19T03:12:31.931Z,17.17
2022-10-19T03:15:19.602Z,21.15
2022-10-19T03:18:07.813Z,22.80
2022-10-19T03:21:10.034Z,23.27
2022-10-19T03:23:56.710Z,20.62
2022-10-19T03:26:43.190Z,21.58
2022-10-19T03:29:32.975Z,21.10
2022-10-19T03:32:19.135Z,22.05
2022-10-19T03:35:06.587Z,23.83
2022-10-19T03:37:53.947Z,21.35
2022-10-19T03:40:42.867Z,22.37
2022-10-19T03:43:31.742Z,21.50
2022-10-19T03:46:20.734Z,23.30
2022-10-19T03:49:11.393Z,22.13
2022-10-19T03:51:59.988Z,24.05
2022-10-19T03:54:50.699Z,23.45
2022-10-19T03:57:37.697Z,20.75
2022-10-19T04:00:26.100Z,23.52
2022-10-19T04:03:24.655Z,18.65
2022-10-19T04:06:15.850Z,20.37
2022-10-19T04:09:06.564Z,19.35
2022-10-19T04:11:55.023Z,20.20
2022-10-19T04:14:56.209Z,20.08
2022-10-19T04:17:45.657Z,18.87
2022-10-19T04:20:45.607Z,19.10
2022-10-19T04:23:36.584Z,18.87
2022-10-19T04:26:27.604Z,18.65
2022-10-19T04:32:09.612Z,21.08
2022-10-19T04:34:56.227Z,19.55
2022-10-19T04:37:45.677Z,18.25
2022-10-19T04:40:37.821Z,20.33
2022-10-19T04:43:25.548Z,18.37
2022-10-19T04:46:16.410Z,20.52
2022-10-19T04:51:59.936Z,19.62
2022-10-19T04:54:46.725Z,21.17
2022-10-19T04:57:37.259Z,21.52
2022-10-19T05:00:25.736Z,20.25
2022-10-19T05:03:21.094Z,22.80
2022-10-19T05:06:11.462Z,23.80
2022-10-19T05:09:04.587Z,22.25
2022-10-19T05:11:51.334Z,23.02
2022-10-19T05:14:41.928Z,22.73
2022-10-19T05:17:33.110Z,23.60
2022-10-19T05:20:23.746Z,20.07
2022-10-19T05:23:12.547Z,21.62
2022-10-19T05:26:08.587Z,22.73
2022-10-19T05:28:58.593Z,20.63
2022-10-19T05:31:45.588Z,22.27
2022-10-19T05:34:32.689Z,23.17
2022-10-19T05:37:22.019Z,24.67
2022-10-19T05:40:10.668Z,24.63
2022-10-19T05:42:57.490Z,23.08
2022-10-19T05:45:44.977Z,22.98
2022-10-19T05:48:35.126Z,21.50
2022-10-19T05:51:24.590Z,22.05
2022-10-19T05:54:21.755Z,20.60
2022-10-19T05:57:11.934Z,23.87
2022-10-19T05:59:59.578Z,21.83
2022-10-19T06:02:58.975Z,21.60
2022-10-19T06:05:46.859Z,20.35
2022-10-19T06:08:36.988Z,19.90
2022-10-19T06:11:27.849Z,20.75
2022-10-19T06:14:16.804Z,19.30
2022-10-19T06:17:04.619Z,20.73
2022-10-19T06:19:52.099Z,21.65
2022-10-19T06:22:38.503Z,20.30
2022-10-19T06:25:32.722Z,20.02
2022-10-19T06:28:31.489Z,19.60
2022-10-19T06:31:18.689Z,19.50
2022-10-19T06:34:05.884Z,18.87
2022-10-19T06:36:56.681Z,18.87
2022-10-19T06:39:43.104Z,18.73
2022-10-19T06:42:29.583Z,18.67
2022-10-19T06:45:24.590Z,17.58
2022-10-19T06:48:15.394Z,17.75
2022-10-19T06:51:06.396Z,17.42
2022-10-19T06:53:57.189Z,18.80
2022-10-19T06:56:45.838Z,16.65
2022-10-19T06:59:33.322Z,16.65
2022-10-19T07:02:21.603Z,16.65
2022-10-19T07:05:09.746Z,18.52
2022-10-19T07:07:57.898Z,15.38
2022-10-19T07:10:53.515Z,15.20
2022-10-19T07:13:40.232Z,16.57
2022-10-19T07:16:26.913Z,16.80
2022-10-19T07:19:14.488Z,18.45
2022-10-19T07:22:01.544Z,15.77
2022-10-19T07:24:48.090Z,15.80
2022-10-19T07:27:40.841Z,16.17
2022-10-19T07:30:34.515Z,18.08
2022-10-19T07:33:21.092Z,15.85
2022-10-19T07:36:11.252Z,17.25
2022-10-19T07:38:58.282Z,15.73
2022-10-19T07:41:48.632Z,15.23
2022-10-19T07:44:36.435Z,14.00
2022-10-19T07:47:24.134Z,15.05
2022-10-19T07:50:12.756Z,13.02
2022-10-19T07:52:59.462Z,12.13
2022-10-19T07:55:46.575Z,12.57
2022-10-19T07:58:36.422Z,12.68
2022-10-19T08:01:28.788Z,11.85
2022-10-19T08:07:26.661Z,12.30
2022-10-19T08:10:15.515Z,10.50
2022-10-19T08:13:02.013Z,11.77
2022-10-19T08:15:50.827Z,10.05
2022-10-19T08:18:37.103Z,9.47
2022-10-19T08:21:26.375Z,10.90
2022-10-19T08:24:20.330Z,9.27
2022-10-19T08:27:12.046Z,8.43
2022-10-19T08:30:03.511Z,8.30
2022-10-19T08:32:50.431Z,8.33
2022-10-19T08:35:37.035Z,8.93
2022-10-19T08:38:23.943Z,6.82
2022-10-19T08:41:19.180Z,8.03
2022-10-19T08:44:34.156Z,6.72
2022-10-19T08:47:35.565Z,8.80
2022-10-19T08:50:31.056Z,8.10
2022-10-19T08:53:28.590Z,9.70
2022-10-19T08:56:50.342Z,7.17
2022-10-19T09:00:00.250Z,5.90
2022-10-19T09:03:02.416Z,6.43
2022-10-19T09:05:55.054Z,6.35
2022-10-19T09:08:42.362Z,5.47
2022-10-19T09:11:36.907Z,5.55
2022-10-19T09:14:39.102Z,7.43
2022-10-19T09:17:32.997Z,5.80
2022-10-19T09:20:23.620Z,6.97
2022-10-19T09:23:22.778Z,5.50
2022-10-19T09:26:19.134Z,5.97
2022-10-19T09:29:29.483Z,5.87
2022-10-19T09:32:34.830Z,5.90
2022-10-19T09:35:32.794Z,6.10
2022-10-19T09:38:25.480Z,7.15
2022-10-19T09:41:17.689Z,6.03
2022-10-19T09:44:05.706Z,12.07
2022-10-19T09:47:02.509Z,4.68
2022-10-19T09:49:50.638Z,5.62
2022-10-19T09:52:39.570Z,6.50
2022-10-19T09:55:32.730Z,4.67
2022-10-19T09:58:32.117Z,5.50
2022-10-19T10:01:41.941Z,5.63
2022-10-19T10:04:31.601Z,3.25
2022-10-19T10:07:18.637Z,5.97
2022-10-19T10:10:20.745Z,2.65
2022-10-19T10:13:17.651Z,3.47
2022-10-19T10:16:08.786Z,6.40
2022-10-19T10:18:58.652Z,4.00
2022-10-19T10:21:48.090Z,4.68
2022-10-19T10:24:36.502Z,4.53
2022-10-19T10:27:33.932Z,3.25
2022-10-19T10:30:21.960Z,2.00
2022-10-19T10:33:26.972Z,2.53
2022-10-19T10:36:30.541Z,3.35
2022-10-19T10:39:17.719Z,2.00
2022-10-19T10:42:11.712Z,4.05
2022-10-19T10:45:01.762Z,3.60
2022-10-19T10:47:52.780Z,2.65
2022-10-19T10:50:41.717Z,4.43
2022-10-19T10:53:35.896Z,2.87
2022-10-19T10:56:28.360Z,3.03
2022-10-19T10:59:21.759Z,5.55
2022-10-19T11:02:42.695Z,2.45
2022-10-19T11:05:32.833Z,2.80
2022-10-19T11:09:05.241Z,4.03
2022-10-19T11:11:57.610Z,1.83
2022-10-19T11:14:48.695Z,2.50
2022-10-19T11:17:39.785Z,5.43
2022-10-19T11:20:34.789Z,3.60
2022-10-19T11:23:46.622Z,2.60
2022-10-19T11:26:43.636Z,3.85
2022-10-19T11:30:09.019Z,5.10
2022-10-19T11:33:08.103Z,3.00
2022-10-19T11:35:59.006Z,3.35
2022-10-19T11:39:10.914Z,2.90
2022-10-19T11:42:34.854Z,2.95
2022-10-19T11:45:50.574Z,2.60
2022-10-19T11:48:43.744Z,3.75
2022-10-19T11:54:40.994Z,2.25
2022-10-19T11:57:34.696Z,3.85
2022-10-19T12:00:38.269Z,4.93
